Duty — WDD5291 — position and weather

sailwx.info

Track history (hours):
 
Tides and Currents Weather Stations Pressure Air Temp Water Temp Dewpoint Dewpoint Depression Visibility Wind Speed Wind Dir Waves Ship Positions

Duty

Owner: Express Marine Inc., Camden, NJ. More information available from US FCC via Universal Licensing System and Coast Guard Vessel Documentation Center.

Last reported at 2018-Aug-12 11:23 UTC. Time now 2018-Aug-19 15:21 UTC.
Position N 27°07' W 080°06'.

Length 33 m; draft 5 m.

Type: Tug. MMSI: 367082000.

Date/timePositionNaut miles runAvg speedWind from/ knotsBaromVisibWave heightAir tempDewpointWater temp
2018-Aug-12 11:23N 27°07' W 080°06'4 9.0
2018-Aug-12 10:58N 27°03' W 080°04'4 9.3
2018-Aug-12 10:30N 26°59' W 080°03'510.1
2018-Aug-12 10:00N 26°54' W 080°02'810.6
2018-Aug-12 09:17N 26°47' W 080°00'311.0
2018-Aug-12 09:00N 26°44' W 080°00'510.6
2018-Aug-12 08:30N 26°39' W 080°01'510.2
2018-Aug-12 08:00N 26°34' W 080°01'5 9.4
2018-Aug-12 07:30N 26°29' W 080°02'5 9.2
2018-Aug-12 07:00N 26°24' W 080°02'5 9.8
2018-Aug-12 06:29N 26°19' W 080°02'510.3
2018-Aug-12 06:00N 26°14' W 080°03'5 9.4
2018-Aug-12 05:29N 26°10' W 080°04'4 8.5
2018-Aug-12 05:00N 26°06' W 080°06'2 2.3
2018-Aug-12 04:19N 26°05' W 080°07'0 0.0
2018-Aug-12 03:52N 26°05' W 080°07'0 0.0
2018-Aug-12 03:22N 26°05' W 080°07'0 0.0
2018-Aug-12 02:52N 26°05' W 080°07'0 0.0
2018-Aug-12 02:22N 26°05' W 080°07'0 0.0
2018-Aug-12 01:52N 26°05' W 080°07'0 0.0
2018-Aug-12 01:22N 26°05' W 080°07'0 0.0
2018-Aug-12 00:55N 26°05' W 080°07'0 0.0
2018-Aug-12 00:25N 26°05' W 080°07'0 0.0
2018-Aug-11 23:55N 26°05' W 080°07'0 0.0
2018-Aug-11 23:25N 26°05' W 080°07'0 0.0
2018-Aug-11 22:55N 26°05' W 080°07'0 0.0
2018-Aug-11 22:28N 26°05' W 080°07'0 0.0
2018-Aug-11 21:58N 26°05' W 080°07'0 0.0
2018-Aug-11 21:28N 26°05' W 080°07'0 0.0
2018-Aug-11 20:58N 26°05' W 080°07'0 0.0
2018-Aug-11 20:28N 26°05' W 080°07'0 0.0
2018-Aug-11 19:58N 26°05' W 080°07'0 0.0
2018-Aug-11 19:25N 26°05' W 080°07'0 0.0
2018-Aug-11 18:55N 26°05' W 080°07'0 0.0
2018-Aug-11 18:28N 26°05' W 080°07'0 0.0
2018-Aug-11 17:58N 26°05' W 080°07'0 0.0
2018-Aug-11 17:28N 26°05' W 080°07'0 0.0
2018-Aug-11 16:58N 26°05' W 080°07'0 0.0
2018-Aug-11 16:19N 26°05' W 080°07'0 0.0
2018-Aug-11 15:49N 26°05' W 080°07'0 0.0
2018-Aug-11 15:28N 26°05' W 080°07'0 0.0
2018-Aug-11 14:49N 26°05' W 080°07'0 0.0
2018-Aug-11 14:19N 26°05' W 080°07'0 0.0
2018-Aug-11 13:52N 26°05' W 080°07'0 0.0
2018-Aug-11 13:22N 26°05' W 080°07'0 0.0
2018-Aug-11 12:52N 26°05' W 080°07'0 0.0
2018-Aug-11 12:22N 26°05' W 080°07'0 0.0
2018-Aug-11 11:52N 26°05' W 080°07'0 0.0
2018-Aug-11 11:22N 26°05' W 080°07'0 0.0
2018-Aug-11 10:55N 26°05' W 080°07'0 0.0
2018-Aug-11 10:25N 26°05' W 080°07'0 0.0
2018-Aug-11 09:55N 26°05' W 080°07'0 0.0
2018-Aug-11 09:25N 26°05' W 080°07'0 0.0
2018-Aug-11 08:55N 26°05' W 080°07'0 0.0
2018-Aug-11 07:43N 26°05' W 080°07'0 0.0
2018-Aug-11 07:28N 26°05' W 080°07'0 0.0
2018-Aug-11 06:58N 26°05' W 080°07'0 0.0
2018-Aug-11 06:28N 26°05' W 080°07'0 0.0
2018-Aug-11 05:58N 26°05' W 080°07'0 0.0
2018-Aug-11 05:28N 26°05' W 080°07'0 0.0
2018-Aug-11 04:58N 26°05' W 080°07'0 0.0
2018-Aug-11 04:28N 26°05' W 080°07'0 0.0
2018-Aug-11 03:46N 26°05' W 080°07'0 0.0
2018-Aug-11 03:28N 26°05' W 080°07'0 0.0
2018-Aug-11 02:58N 26°05' W 080°07'0 0.0
2018-Aug-11 02:28N 26°05' W 080°07'0 0.0
2018-Aug-11 01:58N 26°05' W 080°07'0 0.0
2018-Aug-11 01:28N 26°05' W 080°07'0 0.0
2018-Aug-11 00:49N 26°05' W 080°07'0 0.3
2018-Aug-11 00:24N 26°05' W 080°07'2 6.0
2018-Aug-11 00:00N 26°06' W 080°05'1 2.8
2018-Aug-10 23:30N 26°08' W 080°04'0 0.8
2018-Aug-10 22:57N 26°08' W 080°04'0 0.2
2018-Aug-10 22:27N 26°08' W 080°04'0 0.4
2018-Aug-10 21:57N 26°08' W 080°04'0 0.0
2018-Aug-10 21:30N 26°08' W 080°04'0 0.0
2018-Aug-10 21:00N 26°08' W 080°04'0 0.0
2018-Aug-10 20:30N 26°08' W 080°04'0 0.0
2018-Aug-10 20:00N 26°08' W 080°04'0 0.0
2018-Aug-10 19:30N 26°08' W 080°04'0 0.0
2018-Aug-10 19:00N 26°08' W 080°04'0 0.0
2018-Aug-10 18:30N 26°08' W 080°04'0 0.0
2018-Aug-10 18:00N 26°08' W 080°04'0 0.1
2018-Aug-10 17:30N 26°08' W 080°04'0 0.0
2018-Aug-10 17:00N 26°08' W 080°04'0 0.0
2018-Aug-10 16:30N 26°08' W 080°04'0 0.0
2018-Aug-10 16:00N 26°08' W 080°04'0 0.1
2018-Aug-10 15:30N 26°08' W 080°04'0 0.0
2018-Aug-10 15:00N 26°08' W 080°04'0 0.1
2018-Aug-10 14:21N 26°08' W 080°05'0 0.0
2018-Aug-10 13:51N 26°08' W 080°05'0 0.0
2018-Aug-10 13:21N 26°08' W 080°04'0 0.0
2018-Aug-10 12:54N 26°08' W 080°05'0 0.0
2018-Aug-10 12:24N 26°08' W 080°04'0 0.0
2018-Aug-10 11:54N 26°08' W 080°04'0 0.0
2018-Aug-10 11:24N 26°08' W 080°04'0 0.1
2018-Aug-10 10:54N 26°08' W 080°04'0 0.0
2018-Aug-10 10:24N 26°08' W 080°04'0 0.0
2018-Aug-10 09:57N 26°08' W 080°04'0 0.0
2018-Aug-10 09:27N 26°08' W 080°04'0 0.0
2018-Aug-10 08:57N 26°08' W 080°04'0 0.2
2018-Aug-10 08:27N 26°08' W 080°05'0 0.0
2018-Aug-10 07:57N 26°08' W 080°05'0 0.1
2018-Aug-10 07:30N 26°08' W 080°05'0 0.0
2018-Aug-10 07:00N 26°08' W 080°05'0 0.2
2018-Aug-10 06:30N 26°08' W 080°04'0 0.1
2018-Aug-10 06:00N 26°08' W 080°04'0 0.0
2018-Aug-10 05:30N 26°08' W 080°04'0 0.0
2018-Aug-10 05:00N 26°08' W 080°04'0 0.1
2018-Aug-10 04:30N 26°08' W 080°04'0 0.1
2018-Aug-10 04:00N 26°08' W 080°04'0 0.1
2018-Aug-10 03:30N 26°08' W 080°04'0 0.0
2018-Aug-10 02:48N 26°08' W 080°04'0 0.0
2018-Aug-10 02:30N 26°08' W 080°04'0 0.1
2018-Aug-10 02:00N 26°08' W 080°04'0 0.1
2018-Aug-10 01:21N 26°08' W 080°04'0 0.2
2018-Aug-10 01:00N 26°08' W 080°04'0 0.0
2018-Aug-10 00:30N 26°08' W 080°04'0 0.0
2018-Aug-09 23:51N 26°08' W 080°04'0 0.0
2018-Aug-09 23:21N 26°08' W 080°04'0 0.0
2018-Aug-09 22:54N 26°08' W 080°04'0 0.0
2018-Aug-09 22:24N 26°08' W 080°04'0 0.0
2018-Aug-09 21:54N 26°08' W 080°04'0 0.0
2018-Aug-09 21:24N 26°08' W 080°04'0 0.0
2018-Aug-09 20:54N 26°08' W 080°04'0 0.0
2018-Aug-09 20:24N 26°08' W 080°04'0 0.0
2018-Aug-09 19:54N 26°08' W 080°04'0 0.0
2018-Aug-09 19:27N 26°08' W 080°04'0 0.0
2018-Aug-09 18:54N 26°08' W 080°04'0 0.0
2018-Aug-09 18:27N 26°08' W 080°04'0 0.0
2018-Aug-09 17:57N 26°08' W 080°04'0 0.0
2018-Aug-09 17:30N 26°08' W 080°04'0 0.0
2018-Aug-09 17:00N 26°08' W 080°04'0 0.0
2018-Aug-09 16:30N 26°08' W 080°04'0 0.0
2018-Aug-09 16:00N 26°08' W 080°04'0 0.0
2018-Aug-09 15:30N 26°08' W 080°04'0 0.0
2018-Aug-09 15:00N 26°08' W 080°04'0 0.0
2018-Aug-09 14:30N 26°08' W 080°04'0 0.1
2018-Aug-09 14:00N 26°08' W 080°04'0 0.0
2018-Aug-09 13:30N 26°08' W 080°04'0 0.0
2018-Aug-09 12:48N 26°08' W 080°04'0 0.0
2018-Aug-09 12:30N 26°08' W 080°04'0 0.0
2018-Aug-09 11:51N 26°08' W 080°04'0 0.0
2018-Aug-09 11:30N 26°08' W 080°04'0 0.0
2018-Aug-09 11:00N 26°08' W 080°04'0 0.0
2018-Aug-09 10:30N 26°08' W 080°04'0 0.0
2018-Aug-09 09:51N 26°08' W 080°04'0 0.0
2018-Aug-09 09:21N 26°08' W 080°04'0 0.0
2018-Aug-09 08:51N 26°08' W 080°04'0 0.1
2018-Aug-09 08:24N 26°08' W 080°04'0 0.1
2018-Aug-09 07:54N 26°08' W 080°04'0 0.0
2018-Aug-09 07:24N 26°08' W 080°04'0 0.0
2018-Aug-09 06:54N 26°08' W 080°04'0 0.0
2018-Aug-09 06:24N 26°08' W 080°04'0 0.0
2018-Aug-09 05:57N 26°08' W 080°04'0 0.0
2018-Aug-09 05:27N 26°08' W 080°04'0 0.0
2018-Aug-09 04:57N 26°08' W 080°04'0 0.0
2018-Aug-09 04:27N 26°08' W 080°04'0 0.1
2018-Aug-09 03:57N 26°08' W 080°04'0 0.0
2018-Aug-09 03:29N 26°08' W 080°04'0 0.0
2018-Aug-09 02:59N 26°08' W 080°04'0 0.0
2018-Aug-09 02:30N 26°08' W 080°04'0 0.0
2018-Aug-09 02:00N 26°08' W 080°04'0 0.0
2018-Aug-09 01:30N 26°08' W 080°04'0 0.2
2018-Aug-09 01:00N 26°08' W 080°04'3 6.6
2018-Aug-09 00:29N 26°11' W 080°04'4 7.2
2018-Aug-09 00:00N 26°15' W 080°03'3 6.9
2018-Aug-08 23:30N 26°18' W 080°02'4 6.9
2018-Aug-08 23:00N 26°22' W 080°03'4 7.4
2018-Aug-08 22:30N 26°25' W 080°02'4 7.5
2018-Aug-08 22:00N 26°29' W 080°02'9 7.2
2018-Aug-08 20:45N 26°38' W 080°01'2 7.7
2018-Aug-08 20:29N 26°40' W 080°01'12 6.9
2018-Aug-08 18:45N 26°52' W 080°01'1 6.1
2018-Aug-08 18:30N 26°53' W 080°02'3 6.5
2018-Aug-08 18:00N 26°56' W 080°03'3 6.6
2018-Aug-08 17:29N 26°60' W 080°03'  
Track history (hours):
 
Tides and Currents Weather Stations Pressure Air Temp Water Temp Dewpoint Dewpoint Depression Visibility Wind Speed Wind Dir Waves Ship Positions

Duty

Owner: Express Marine Inc., Camden, NJ. More information available from US FCC via Universal Licensing System and Coast Guard Vessel Documentation Center.

Last reported at 2018-Aug-12 11:23 UTC. Time now 2018-Aug-19 15:21 UTC.
Position N 27°07' W 080°06'.

Length 33 m; draft 5 m.

Type: Tug. MMSI: 367082000.

Date/timePositionNaut miles runAvg speedWind from/ knotsBaromVisibWave heightAir tempDewpointWater temp
2018-Aug-12 11:23N 27°07' W 080°06'4 9.0
2018-Aug-12 10:58N 27°03' W 080°04'4 9.3
2018-Aug-12 10:30N 26°59' W 080°03'510.1
2018-Aug-12 10:00N 26°54' W 080°02'810.6
2018-Aug-12 09:17N 26°47' W 080°00'311.0
2018-Aug-12 09:00N 26°44' W 080°00'510.6
2018-Aug-12 08:30N 26°39' W 080°01'510.2
2018-Aug-12 08:00N 26°34' W 080°01'5 9.4
2018-Aug-12 07:30N 26°29' W 080°02'5 9.2
2018-Aug-12 07:00N 26°24' W 080°02'5 9.8
2018-Aug-12 06:29N 26°19' W 080°02'510.3
2018-Aug-12 06:00N 26°14' W 080°03'5 9.4
2018-Aug-12 05:29N 26°10' W 080°04'4 8.5
2018-Aug-12 05:00N 26°06' W 080°06'2 2.3
2018-Aug-12 04:19N 26°05' W 080°07'0 0.0
2018-Aug-12 03:52N 26°05' W 080°07'0 0.0
2018-Aug-12 03:22N 26°05' W 080°07'0 0.0
2018-Aug-12 02:52N 26°05' W 080°07'0 0.0
2018-Aug-12 02:22N 26°05' W 080°07'0 0.0
2018-Aug-12 01:52N 26°05' W 080°07'0 0.0
2018-Aug-12 01:22N 26°05' W 080°07'0 0.0
2018-Aug-12 00:55N 26°05' W 080°07'0 0.0
2018-Aug-12 00:25N 26°05' W 080°07'0 0.0
2018-Aug-11 23:55N 26°05' W 080°07'0 0.0
2018-Aug-11 23:25N 26°05' W 080°07'0 0.0
2018-Aug-11 22:55N 26°05' W 080°07'0 0.0
2018-Aug-11 22:28N 26°05' W 080°07'0 0.0
2018-Aug-11 21:58N 26°05' W 080°07'0 0.0
2018-Aug-11 21:28N 26°05' W 080°07'0 0.0
2018-Aug-11 20:58N 26°05' W 080°07'0 0.0
2018-Aug-11 20:28N 26°05' W 080°07'0 0.0
2018-Aug-11 19:58N 26°05' W 080°07'0 0.0
2018-Aug-11 19:25N 26°05' W 080°07'0 0.0
2018-Aug-11 18:55N 26°05' W 080°07'0 0.0
2018-Aug-11 18:28N 26°05' W 080°07'0 0.0
2018-Aug-11 17:58N 26°05' W 080°07'0 0.0
2018-Aug-11 17:28N 26°05' W 080°07'0 0.0
2018-Aug-11 16:58N 26°05' W 080°07'0 0.0
2018-Aug-11 16:19N 26°05' W 080°07'0 0.0
2018-Aug-11 15:49N 26°05' W 080°07'0 0.0
2018-Aug-11 15:28N 26°05' W 080°07'0 0.0
2018-Aug-11 14:49N 26°05' W 080°07'0 0.0
2018-Aug-11 14:19N 26°05' W 080°07'0 0.0
2018-Aug-11 13:52N 26°05' W 080°07'0 0.0
2018-Aug-11 13:22N 26°05' W 080°07'0 0.0
2018-Aug-11 12:52N 26°05' W 080°07'0 0.0
2018-Aug-11 12:22N 26°05' W 080°07'0 0.0
2018-Aug-11 11:52N 26°05' W 080°07'0 0.0
2018-Aug-11 11:22N 26°05' W 080°07'0 0.0
2018-Aug-11 10:55N 26°05' W 080°07'0 0.0
2018-Aug-11 10:25N 26°05' W 080°07'0 0.0
2018-Aug-11 09:55N 26°05' W 080°07'0 0.0
2018-Aug-11 09:25N 26°05' W 080°07'0 0.0
2018-Aug-11 08:55N 26°05' W 080°07'0 0.0
2018-Aug-11 07:43N 26°05' W 080°07'0 0.0
2018-Aug-11 07:28N 26°05' W 080°07'0 0.0
2018-Aug-11 06:58N 26°05' W 080°07'0 0.0
2018-Aug-11 06:28N 26°05' W 080°07'0 0.0
2018-Aug-11 05:58N 26°05' W 080°07'0 0.0
2018-Aug-11 05:28N 26°05' W 080°07'0 0.0
2018-Aug-11 04:58N 26°05' W 080°07'0 0.0
2018-Aug-11 04:28N 26°05' W 080°07'0 0.0
2018-Aug-11 03:46N 26°05' W 080°07'0 0.0
2018-Aug-11 03:28N 26°05' W 080°07'0 0.0
2018-Aug-11 02:58N 26°05' W 080°07'0 0.0
2018-Aug-11 02:28N 26°05' W 080°07'0 0.0
2018-Aug-11 01:58N 26°05' W 080°07'0 0.0
2018-Aug-11 01:28N 26°05' W 080°07'0 0.0
2018-Aug-11 00:49N 26°05' W 080°07'0 0.3
2018-Aug-11 00:24N 26°05' W 080°07'2 6.0
2018-Aug-11 00:00N 26°06' W 080°05'1 2.8
2018-Aug-10 23:30N 26°08' W 080°04'0 0.8
2018-Aug-10 22:57N 26°08' W 080°04'0 0.2
2018-Aug-10 22:27N 26°08' W 080°04'0 0.4
2018-Aug-10 21:57N 26°08' W 080°04'0 0.0
2018-Aug-10 21:30N 26°08' W 080°04'0 0.0
2018-Aug-10 21:00N 26°08' W 080°04'0 0.0
2018-Aug-10 20:30N 26°08' W 080°04'0 0.0
2018-Aug-10 20:00N 26°08' W 080°04'0 0.0
2018-Aug-10 19:30N 26°08' W 080°04'0 0.0
2018-Aug-10 19:00N 26°08' W 080°04'0 0.0
2018-Aug-10 18:30N 26°08' W 080°04'0 0.0
2018-Aug-10 18:00N 26°08' W 080°04'0 0.1
2018-Aug-10 17:30N 26°08' W 080°04'0 0.0
2018-Aug-10 17:00N 26°08' W 080°04'0 0.0
2018-Aug-10 16:30N 26°08' W 080°04'0 0.0
2018-Aug-10 16:00N 26°08' W 080°04'0 0.1
2018-Aug-10 15:30N 26°08' W 080°04'0 0.0
2018-Aug-10 15:00N 26°08' W 080°04'0 0.1
2018-Aug-10 14:21N 26°08' W 080°05'0 0.0
2018-Aug-10 13:51N 26°08' W 080°05'0 0.0
2018-Aug-10 13:21N 26°08' W 080°04'0 0.0
2018-Aug-10 12:54N 26°08' W 080°05'0 0.0
2018-Aug-10 12:24N 26°08' W 080°04'0 0.0
2018-Aug-10 11:54N 26°08' W 080°04'0 0.0
2018-Aug-10 11:24N 26°08' W 080°04'0 0.1
2018-Aug-10 10:54N 26°08' W 080°04'0 0.0
2018-Aug-10 10:24N 26°08' W 080°04'0 0.0
2018-Aug-10 09:57N 26°08' W 080°04'0 0.0
2018-Aug-10 09:27N 26°08' W 080°04'0 0.0
2018-Aug-10 08:57N 26°08' W 080°04'0 0.2
2018-Aug-10 08:27N 26°08' W 080°05'0 0.0
2018-Aug-10 07:57N 26°08' W 080°05'0 0.1
2018-Aug-10 07:30N 26°08' W 080°05'0 0.0
2018-Aug-10 07:00N 26°08' W 080°05'0 0.2
2018-Aug-10 06:30N 26°08' W 080°04'0 0.1
2018-Aug-10 06:00N 26°08' W 080°04'0 0.0
2018-Aug-10 05:30N 26°08' W 080°04'0 0.0
2018-Aug-10 05:00N 26°08' W 080°04'0 0.1
2018-Aug-10 04:30N 26°08' W 080°04'0 0.1
2018-Aug-10 04:00N 26°08' W 080°04'0 0.1
2018-Aug-10 03:30N 26°08' W 080°04'0 0.0
2018-Aug-10 02:48N 26°08' W 080°04'0 0.0
2018-Aug-10 02:30N 26°08' W 080°04'0 0.1
2018-Aug-10 02:00N 26°08' W 080°04'0 0.1
2018-Aug-10 01:21N 26°08' W 080°04'0 0.2
2018-Aug-10 01:00N 26°08' W 080°04'0 0.0
2018-Aug-10 00:30N 26°08' W 080°04'0 0.0
2018-Aug-09 23:51N 26°08' W 080°04'0 0.0
2018-Aug-09 23:21N 26°08' W 080°04'0 0.0
2018-Aug-09 22:54N 26°08' W 080°04'0 0.0
2018-Aug-09 22:24N 26°08' W 080°04'0 0.0
2018-Aug-09 21:54N 26°08' W 080°04'0 0.0
2018-Aug-09 21:24N 26°08' W 080°04'0 0.0
2018-Aug-09 20:54N 26°08' W 080°04'0 0.0
2018-Aug-09 20:24N 26°08' W 080°04'0 0.0
2018-Aug-09 19:54N 26°08' W 080°04'0 0.0
2018-Aug-09 19:27N 26°08' W 080°04'0 0.0
2018-Aug-09 18:54N 26°08' W 080°04'0 0.0
2018-Aug-09 18:27N 26°08' W 080°04'0 0.0
2018-Aug-09 17:57N 26°08' W 080°04'0 0.0
2018-Aug-09 17:30N 26°08' W 080°04'0 0.0
2018-Aug-09 17:00N 26°08' W 080°04'0 0.0
2018-Aug-09 16:30N 26°08' W 080°04'0 0.0
2018-Aug-09 16:00N 26°08' W 080°04'0 0.0
2018-Aug-09 15:30N 26°08' W 080°04'0 0.0
2018-Aug-09 15:00N 26°08' W 080°04'0 0.0
2018-Aug-09 14:30N 26°08' W 080°04'0 0.1
2018-Aug-09 14:00N 26°08' W 080°04'0 0.0
2018-Aug-09 13:30N 26°08' W 080°04'0 0.0
2018-Aug-09 12:48N 26°08' W 080°04'0 0.0
2018-Aug-09 12:30N 26°08' W 080°04'0 0.0
2018-Aug-09 11:51N 26°08' W 080°04'0 0.0
2018-Aug-09 11:30N 26°08' W 080°04'0 0.0
2018-Aug-09 11:00N 26°08' W 080°04'0 0.0
2018-Aug-09 10:30N 26°08' W 080°04'0 0.0
2018-Aug-09 09:51N 26°08' W 080°04'0 0.0
2018-Aug-09 09:21N 26°08' W 080°04'0 0.0
2018-Aug-09 08:51N 26°08' W 080°04'0 0.1
2018-Aug-09 08:24N 26°08' W 080°04'0 0.1
2018-Aug-09 07:54N 26°08' W 080°04'0 0.0
2018-Aug-09 07:24N 26°08' W 080°04'0 0.0
2018-Aug-09 06:54N 26°08' W 080°04'0 0.0
2018-Aug-09 06:24N 26°08' W 080°04'0 0.0
2018-Aug-09 05:57N 26°08' W 080°04'0 0.0
2018-Aug-09 05:27N 26°08' W 080°04'0 0.0
2018-Aug-09 04:57N 26°08' W 080°04'0 0.0
2018-Aug-09 04:27N 26°08' W 080°04'0 0.1
2018-Aug-09 03:57N 26°08' W 080°04'0 0.0
2018-Aug-09 03:29N 26°08' W 080°04'0 0.0
2018-Aug-09 02:59N 26°08' W 080°04'0 0.0
2018-Aug-09 02:30N 26°08' W 080°04'0 0.0
2018-Aug-09 02:00N 26°08' W 080°04'0 0.0
2018-Aug-09 01:30N 26°08' W 080°04'0 0.2
2018-Aug-09 01:00N 26°08' W 080°04'3 6.6
2018-Aug-09 00:29N 26°11' W 080°04'4 7.2
2018-Aug-09 00:00N 26°15' W 080°03'3 6.9
2018-Aug-08 23:30N 26°18' W 080°02'4 6.9
2018-Aug-08 23:00N 26°22' W 080°03'4 7.4
2018-Aug-08 22:30N 26°25' W 080°02'4 7.5
2018-Aug-08 22:00N 26°29' W 080°02'9 7.2
2018-Aug-08 20:45N 26°38' W 080°01'2 7.7
2018-Aug-08 20:29N 26°40' W 080°01'12 6.9
2018-Aug-08 18:45N 26°52' W 080°01'1 6.1
2018-Aug-08 18:30N 26°53' W 080°02'3 6.5
2018-Aug-08 18:00N 26°56' W 080°03'3 6.6
2018-Aug-08 17:29N 26°60' W 080°03'  

Dump ship's entire track history